createdAt,value
2023-01-18T00:00:40.390Z,0.92
2023-01-18T00:04:42.076Z,0.90
2023-01-18T00:08:43.760Z,1.04
2023-01-18T00:12:45.492Z,1.09
2023-01-18T00:16:47.047Z,1.01
2023-01-18T00:20:48.494Z,0.97
2023-01-18T00:24:50.229Z,1.00
2023-01-18T00:28:51.711Z,1.04
2023-01-18T00:32:56.086Z,1.19
2023-01-18T00:36:58.058Z,1.08
2023-01-18T00:40:59.760Z,1.12
2023-01-18T00:45:01.554Z,1.22
2023-01-18T00:49:03.098Z,1.34
2023-01-18T00:53:04.659Z,1.35
2023-01-18T00:57:06.259Z,1.39
2023-01-18T01:01:09.975Z,1.47
2023-01-18T01:05:40.670Z,1.53
2023-01-18T01:09:44.209Z,1.56
2023-01-18T01:14:04.658Z,1.58
2023-01-18T01:18:24.993Z,1.60
2023-01-18T01:22:44.940Z,1.67
2023-01-18T01:26:46.553Z,1.75
2023-01-18T01:30:48.359Z,1.74
2023-01-18T01:34:49.916Z,1.59
2023-01-18T01:38:51.759Z,1.47
2023-01-18T01:42:53.242Z,1.50
2023-01-18T01:47:10.414Z,1.55
2023-01-18T01:51:12.133Z,1.53
2023-01-18T01:55:21.103Z,1.59
2023-01-18T01:59:23.843Z,1.64
2023-01-18T02:03:25.887Z,1.72
2023-01-18T02:07:28.858Z,1.75
2023-01-18T02:11:30.495Z,1.77
2023-01-18T02:15:48.042Z,1.79
2023-01-18T02:20:21.857Z,1.80
2023-01-18T02:24:45.166Z,1.81
2023-01-18T02:28:58.434Z,1.75
2023-01-18T02:33:07.355Z,1.80
2023-01-18T02:37:35.372Z,1.91
2023-01-18T02:42:10.219Z,1.87
2023-01-18T02:46:27.737Z,1.93
2023-01-18T02:50:29.512Z,1.84
2023-01-18T02:54:34.618Z,1.81
2023-01-18T02:58:44.464Z,1.77
2023-01-18T03:02:49.556Z,1.69
2023-01-18T03:06:57.438Z,1.57
2023-01-18T03:11:02.285Z,1.52
2023-01-18T03:15:13.030Z,1.53
2023-01-18T03:19:40.031Z,1.54
2023-01-18T03:23:42.796Z,1.62
2023-01-18T03:28:06.049Z,1.64
2023-01-18T03:32:33.836Z,1.53
2023-01-18T03:36:41.237Z,1.56
2023-01-18T03:40:42.776Z,1.62
2023-01-18T03:45:13.463Z,1.51
2023-01-18T03:49:16.502Z,1.34
2023-01-18T03:53:59.447Z,1.36
2023-01-18T03:58:07.512Z,1.47
2023-01-18T04:02:09.996Z,1.55
2023-01-18T04:06:11.651Z,1.43
2023-01-18T04:10:13.230Z,1.33
2023-01-18T04:14:14.865Z,1.15
2023-01-18T04:18:16.451Z,1.01
2023-01-18T04:22:18.132Z,1.05
2023-01-18T04:26:19.700Z,1.15
2023-01-18T04:30:21.323Z,1.26
2023-01-18T04:34:22.944Z,1.24
2023-01-18T04:38:24.539Z,1.03
2023-01-18T04:42:26.556Z,1.06
2023-01-18T04:46:28.133Z,0.98
2023-01-18T04:50:30.104Z,0.88
2023-01-18T04:54:31.687Z,0.84
2023-01-18T04:58:33.646Z,0.76
2023-01-18T05:02:35.219Z,0.67
2023-01-18T05:06:36.877Z,0.54
2023-01-18T05:10:38.431Z,0.51
2023-01-18T05:14:39.969Z,0.43
2023-01-18T05:18:42.254Z,0.35
2023-01-18T05:22:43.966Z,0.36
2023-01-18T05:26:45.474Z,0.44
2023-01-18T05:30:49.893Z,0.49
2023-01-18T05:34:51.557Z,0.50
2023-01-18T05:38:53.164Z,0.49
2023-01-18T05:42:54.773Z,0.43
2023-01-18T05:46:56.758Z,0.42
2023-01-18T05:50:58.363Z,0.43
2023-01-18T05:54:59.918Z,0.35
2023-01-18T05:59:01.403Z,0.30
2023-01-18T06:03:03.369Z,0.29
2023-01-18T06:07:04.841Z,0.25
2023-01-18T06:11:06.568Z,0.31
2023-01-18T06:15:09.071Z,0.35
2023-01-18T06:19:10.713Z,0.31
2023-01-18T06:23:12.389Z,0.29
2023-01-18T06:27:13.913Z,0.43
2023-01-18T06:31:15.446Z,0.47
2023-01-18T06:35:17.249Z,0.57
2023-01-18T06:39:18.873Z,0.55
2023-01-18T06:43:20.435Z,0.53
2023-01-18T06:47:21.934Z,0.58
2023-01-18T06:52:18.182Z,0.63
2023-01-18T06:57:09.942Z,0.63
2023-01-18T07:01:11.805Z,0.72
2023-01-18T07:05:14.758Z,0.80
2023-01-18T07:10:07.596Z,0.87
2023-01-18T07:14:13.297Z,0.94
2023-01-18T07:18:15.642Z,1.01
2023-01-18T07:23:07.180Z,1.05
2023-01-18T07:27:59.049Z,1.15
2023-01-18T07:32:01.126Z,1.18
2023-01-18T07:36:06.291Z,1.27
2023-01-18T07:40:10.271Z,1.47
2023-01-18T07:50:17.349Z,1.33
2023-01-18T07:55:09.124Z,1.23
2023-01-18T08:00:01.181Z,1.12
2023-01-18T08:04:03.002Z,1.20
2023-01-18T08:08:08.754Z,1.26
2023-01-18T08:19:17.412Z,1.28
2023-01-18T08:24:08.843Z,1.31
2023-01-18T08:34:10.326Z,1.67
2023-01-18T08:38:14.162Z,1.76
2023-01-18T08:42:15.987Z,1.82
2023-01-18T08:46:20.873Z,1.84
2023-01-18T08:50:23.323Z,1.88
2023-01-18T08:54:24.994Z,1.99
2023-01-18T08:59:17.218Z,2.03
2023-01-18T09:03:22.064Z,2.05
2023-01-18T09:07:23.932Z,1.90
2023-01-18T09:11:59.556Z,2.04
2023-01-18T09:16:51.045Z,2.23
2023-01-18T09:20:54.245Z,2.31
2023-01-18T09:24:57.491Z,2.16
2023-01-18T09:29:02.340Z,2.02
2023-01-18T09:33:37.906Z,2.14
2023-01-18T09:43:20.965Z,2.49
2023-01-18T09:47:52.092Z,2.59
2023-01-18T09:52:43.920Z,2.45
2023-01-18T09:57:08.723Z,2.31
2023-01-18T10:01:18.363Z,2.29
2023-01-18T10:05:24.599Z,2.25
2023-01-18T10:10:03.941Z,2.62
2023-01-18T10:14:56.094Z,2.80
2023-01-18T10:18:57.842Z,2.89
2023-01-18T10:23:09.988Z,2.94
2023-01-18T10:27:47.197Z,3.01
2023-01-18T10:32:01.991Z,3.02
2023-01-18T10:36:21.053Z,3.01
2023-01-18T10:40:23.254Z,3.15
2023-01-18T10:44:24.981Z,3.21
2023-01-18T10:48:35.687Z,3.31
2023-01-18T10:53:37.831Z,3.35
2023-01-18T10:58:14.302Z,3.26
2023-01-18T11:02:23.442Z,3.09
2023-01-18T11:06:26.221Z,3.08
2023-01-18T11:10:28.057Z,3.19
2023-01-18T11:14:31.298Z,3.34
2023-01-18T11:19:23.819Z,3.45
2023-01-18T11:23:38.365Z,3.52
2023-01-18T11:27:42.073Z,3.44
2023-01-18T11:31:49.670Z,3.40
2023-01-18T11:35:57.285Z,3.34
2023-01-18T11:40:49.370Z,3.30
2023-01-18T11:45:19.199Z,3.26
2023-01-18T11:49:53.175Z,3.18
2023-01-18T11:54:34.443Z,3.00
2023-01-18T11:59:14.619Z,2.87
2023-01-18T12:03:23.959Z,2.88
2023-01-18T12:07:53.786Z,2.94
2023-01-18T12:12:30.470Z,3.00
2023-01-18T12:17:03.307Z,2.92
2023-01-18T12:21:43.525Z,2.94
2023-01-18T12:26:12.328Z,2.92
2023-01-18T12:30:47.098Z,2.91
2023-01-18T12:35:26.106Z,2.86
2023-01-18T12:40:17.974Z,2.83
2023-01-18T12:45:02.039Z,2.80
2023-01-18T12:49:45.536Z,2.83
2023-01-18T12:54:05.444Z,2.83
2023-01-18T12:58:26.297Z,2.85
2023-01-18T13:02:36.974Z,2.85
2023-01-18T13:07:07.387Z,2.79
2023-01-18T13:11:41.743Z,2.79
2023-01-18T13:15:51.340Z,2.79
2023-01-18T13:20:00.255Z,2.72
2023-01-18T13:24:11.340Z,2.68
2023-01-18T13:28:16.276Z,2.73
2023-01-18T13:32:34.391Z,2.83
2023-01-18T13:36:44.712Z,2.75
2023-01-18T13:40:55.531Z,2.68
2023-01-18T13:45:46.866Z,2.59
2023-01-18T13:50:39.341Z,2.58
2023-01-18T13:55:31.818Z,2.65
2023-01-18T14:00:24.617Z,2.63
2023-01-18T14:05:15.768Z,2.75
2023-01-18T14:10:08.199Z,2.71
2023-01-18T14:14:12.555Z,2.73
2023-01-18T14:18:26.725Z,2.75
2023-01-18T14:22:53.033Z,2.79
2023-01-18T14:26:57.928Z,2.83
2023-01-18T14:31:02.063Z,2.80
2023-01-18T14:35:22.796Z,2.76
2023-01-18T14:40:16.157Z,2.77
2023-01-18T14:45:18.101Z,2.79
2023-01-18T14:49:26.867Z,2.77
2023-01-18T14:53:58.203Z,2.74
2023-01-18T14:58:49.983Z,2.60
2023-01-18T15:02:51.878Z,2.56
2023-01-18T15:07:33.806Z,2.57
2023-01-18T15:11:38.102Z,2.50
2023-01-18T15:15:44.153Z,2.50
2023-01-18T15:19:48.382Z,2.47
2023-01-18T15:24:04.879Z,2.45
2023-01-18T15:28:22.999Z,2.41
2023-01-18T15:32:44.064Z,2.46
2023-01-18T15:36:46.559Z,2.46
2023-01-18T15:41:42.436Z,2.41
2023-01-18T15:45:49.475Z,2.35
2023-01-18T15:49:53.686Z,2.35
2023-01-18T15:53:56.858Z,2.36
2023-01-18T15:58:05.419Z,2.39
2023-01-18T16:02:21.590Z,2.41
2023-01-18T16:06:23.852Z,2.42
2023-01-18T16:11:15.772Z,2.36
2023-01-18T16:15:28.817Z,2.44
2023-01-18T16:19:59.648Z,2.39
2023-01-18T16:24:01.294Z,2.38
2023-01-18T16:33:57.001Z,2.28
2023-01-18T16:37:58.851Z,2.29
2023-01-18T16:42:02.590Z,2.25
2023-01-18T16:46:04.792Z,2.16
2023-01-18T16:50:34.375Z,2.15
2023-01-18T16:54:35.963Z,2.09
2023-01-18T16:58:37.589Z,1.98
2023-01-18T17:02:39.225Z,1.98
2023-01-18T17:06:42.446Z,1.93
2023-01-18T17:17:08.779Z,1.81
2023-01-18T17:21:11.185Z,1.79
2023-01-18T17:25:13.580Z,1.86
2023-01-18T17:30:06.007Z,1.82
2023-01-18T17:34:10.137Z,1.85
2023-01-18T17:44:06.229Z,1.83
2023-01-18T17:48:09.293Z,1.82
2023-01-18T17:52:45.029Z,1.84
2023-01-18T17:56:46.837Z,1.75
2023-01-18T18:00:48.548Z,1.77
2023-01-18T18:04:50.744Z,1.69
2023-01-18T18:08:52.299Z,1.66
2023-01-18T18:12:54.646Z,1.66
2023-01-18T18:16:56.148Z,1.62
2023-01-18T18:26:58.268Z,1.43
2023-01-18T18:31:00.383Z,1.35
2023-01-18T18:35:05.350Z,1.33
2023-01-18T18:39:08.466Z,1.33
2023-01-18T18:43:10.381Z,1.31
2023-01-18T18:47:13.252Z,1.26
2023-01-18T18:57:14.551Z,1.26
2023-01-18T19:02:06.080Z,1.20
2023-01-18T19:06:58.644Z,1.10
2023-01-18T19:11:00.266Z,1.01
2023-01-18T19:15:36.129Z,0.93
2023-01-18T19:20:05.277Z,0.93
2023-01-18T19:24:06.990Z,0.81
2023-01-18T19:34:32.792Z,0.59
2023-01-18T19:39:24.837Z,0.64
2023-01-18T19:43:26.998Z,0.62
2023-01-18T19:47:28.493Z,0.65
2023-01-18T19:51:30.376Z,0.68
2023-01-18T19:56:07.617Z,0.70
2023-01-18T20:12:34.846Z,0.76
2023-01-18T20:16:36.559Z,0.81
2023-01-18T20:20:38.251Z,0.80
2023-01-18T20:24:39.759Z,0.79
2023-01-18T20:28:41.285Z,0.86
2023-01-18T20:32:43.033Z,0.84
2023-01-18T20:36:46.169Z,0.88
2023-01-18T20:40:47.915Z,0.93
2023-01-18T20:44:53.448Z,0.90
2023-01-18T20:48:55.048Z,0.95
2023-01-18T20:52:56.612Z,0.98
2023-01-18T20:57:48.645Z,1.01
2023-01-18T21:02:40.972Z,1.05
2023-01-18T21:06:44.860Z,1.04
2023-01-18T21:11:15.850Z,1.15
2023-01-18T21:15:17.499Z,1.18
2023-01-18T21:19:19.158Z,1.14
2023-01-18T21:23:25.754Z,1.09
2023-01-18T21:27:27.409Z,0.94
2023-01-18T21:31:29.667Z,0.81
2023-01-18T21:35:31.601Z,0.59
2023-01-18T21:39:33.180Z,0.46
2023-01-18T21:43:54.263Z,0.29
2023-01-18T21:47:56.139Z,0.12
2023-01-18T21:58:09.688Z,-0.08
2023-01-18T22:08:05.640Z,-0.22
2023-01-18T22:12:07.314Z,-0.32
2023-01-18T22:16:08.767Z,-0.40
2023-01-18T22:20:11.191Z,-0.48
2023-01-18T22:24:13.627Z,-0.52
2023-01-18T22:28:15.207Z,-0.59
2023-01-18T22:32:34.002Z,-0.61
2023-01-18T22:36:35.541Z,-0.66
2023-01-18T22:40:37.048Z,-0.71
2023-01-18T22:44:39.151Z,-0.79
2023-01-18T22:48:41.384Z,-0.85
2023-01-18T22:53:32.934Z,-0.93
2023-01-18T22:57:34.732Z,-0.98
2023-01-18T23:01:36.239Z,-1.03
2023-01-18T23:05:42.211Z,-1.08
2023-01-18T23:16:02.961Z,-1.10
2023-01-18T23:20:13.389Z,-0.98
2023-01-18T23:24:15.058Z,-1.04
2023-01-18T23:28:36.874Z,-1.13
2023-01-18T23:32:38.583Z,-1.21
2023-01-18T23:37:14.054Z,-1.25
2023-01-18T23:42:25.797Z,-1.09
2023-01-18T23:46:45.715Z,-1.11
2023-01-18T23:51:05.989Z,-1.19
2023-01-18T23:55:32.932Z,-1.24
